createdAt,value
2016-12-13T00:00:46.621Z,99.99
2016-12-13T00:01:57.327Z,99.99
2016-12-13T00:03:08.015Z,99.99
2016-12-13T00:04:18.665Z,99.99
2016-12-13T00:05:29.348Z,99.99
2016-12-13T00:06:40.023Z,99.99
2016-12-13T00:07:51.192Z,99.99
2016-12-13T00:09:01.864Z,99.99
2016-12-13T00:10:13.071Z,99.99
2016-12-13T00:11:23.767Z,99.99
2016-12-13T00:12:34.456Z,99.99
2016-12-13T00:13:45.165Z,99.99
2016-12-13T00:14:55.858Z,99.99
2016-12-13T00:16:06.545Z,99.99
2016-12-13T00:17:17.223Z,99.99
2016-12-13T00:18:27.928Z,99.99
2016-12-13T00:19:38.609Z,99.99
2016-12-13T00:20:49.288Z,99.99
2016-12-13T00:21:59.959Z,99.99
2016-12-13T00:23:10.649Z,99.99
2016-12-13T00:24:21.321Z,99.99
2016-12-13T00:25:31.982Z,99.99
2016-12-13T00:26:42.639Z,99.99
2016-12-13T00:27:53.319Z,99.99
2016-12-13T00:29:03.984Z,99.99
2016-12-13T00:30:14.673Z,99.99
2016-12-13T00:31:25.356Z,99.99
2016-12-13T00:32:36.057Z,99.99
2016-12-13T00:33:46.773Z,99.99
2016-12-13T00:34:57.443Z,99.99
2016-12-13T00:36:08.136Z,99.99
2016-12-13T00:37:18.799Z,99.99
2016-12-13T00:38:29.476Z,99.99
2016-12-13T00:39:40.152Z,99.99
2016-12-13T00:40:50.849Z,99.99
2016-12-13T00:42:01.514Z,99.99
2016-12-13T00:43:12.195Z,99.99
2016-12-13T00:44:22.871Z,99.99
2016-12-13T00:45:33.575Z,99.99
2016-12-13T00:46:44.263Z,99.99
2016-12-13T00:47:54.941Z,99.99
2016-12-13T00:49:05.622Z,99.99
2016-12-13T00:50:16.312Z,99.99
2016-12-13T00:51:26.995Z,99.99
2016-12-13T00:52:37.710Z,99.99
2016-12-13T00:53:48.397Z,99.99
2016-12-13T00:54:59.630Z,99.99
2016-12-13T00:56:10.323Z,99.99
2016-12-13T00:57:21.035Z,99.99
2016-12-13T00:58:31.700Z,99.99
2016-12-13T00:59:42.390Z,99.99
2016-12-13T01:00:53.059Z,99.99
2016-12-13T01:02:04.299Z,99.99
2016-12-13T01:03:15.027Z,99.99
2016-12-13T01:04:25.715Z,99.99
2016-12-13T01:05:36.401Z,99.99
2016-12-13T01:06:47.099Z,99.99
2016-12-13T01:07:57.771Z,99.99
2016-12-13T01:09:08.444Z,99.99
2016-12-13T01:10:19.164Z,99.99
2016-12-13T01:11:29.840Z,99.99
2016-12-13T01:12:40.517Z,99.99
2016-12-13T01:13:51.220Z,99.99
2016-12-13T01:15:01.903Z,99.99
2016-12-13T01:16:12.563Z,99.99
2016-12-13T01:17:23.270Z,99.99
2016-12-13T01:18:33.947Z,99.99
2016-12-13T01:19:45.146Z,99.99
2016-12-13T01:20:55.854Z,99.99
2016-12-13T01:22:06.533Z,99.99
2016-12-13T01:23:17.214Z,99.99
2016-12-13T01:24:27.901Z,99.99
2016-12-13T01:25:38.574Z,99.99
2016-12-13T01:26:49.267Z,99.99
2016-12-13T01:27:59.961Z,99.99
2016-12-13T01:29:10.629Z,99.99
2016-12-13T01:30:21.300Z,99.99
2016-12-13T01:31:31.967Z,99.99
2016-12-13T01:32:42.708Z,99.99
2016-12-13T01:33:53.410Z,99.99
2016-12-13T01:35:04.104Z,99.99
2016-12-13T01:36:14.795Z,99.99
2016-12-13T01:37:25.483Z,99.99
2016-12-13T01:38:36.146Z,99.99
2016-12-13T01:39:46.807Z,99.99
2016-12-13T01:40:57.463Z,99.99
2016-12-13T01:42:08.125Z,99.99
2016-12-13T01:43:18.794Z,99.99
2016-12-13T01:44:29.467Z,99.99
2016-12-13T01:45:40.162Z,99.99
2016-12-13T01:46:50.823Z,99.99
2016-12-13T01:48:01.502Z,99.99
2016-12-13T01:49:12.190Z,99.99
2016-12-13T01:50:22.914Z,99.99
2016-12-13T01:51:33.623Z,99.99
2016-12-13T01:52:44.328Z,99.99
2016-12-13T01:53:55.010Z,99.99
2016-12-13T01:55:05.743Z,99.99
2016-12-13T01:56:16.439Z,99.99
2016-12-13T01:57:27.094Z,99.99
2016-12-13T01:58:37.778Z,99.99
2016-12-13T01:59:48.481Z,99.99
2016-12-13T02:00:59.204Z,99.99
2016-12-13T02:02:09.935Z,99.99
2016-12-13T02:03:20.639Z,99.99
2016-12-13T02:04:31.341Z,99.99
2016-12-13T02:05:42.047Z,99.99
2016-12-13T02:06:53.227Z,99.99
2016-12-13T02:08:03.940Z,99.99
2016-12-13T02:09:14.634Z,99.99
2016-12-13T02:10:25.821Z,99.99
2016-12-13T02:11:36.498Z,99.99
2016-12-13T02:12:47.186Z,99.99
2016-12-13T02:13:57.867Z,99.99
2016-12-13T02:15:08.581Z,99.99
2016-12-13T02:16:19.267Z,99.99
2016-12-13T02:17:29.934Z,99.99
2016-12-13T02:18:40.621Z,99.99
2016-12-13T02:19:51.301Z,99.99
2016-12-13T02:21:02.075Z,99.99
2016-12-13T02:22:12.756Z,99.99
2016-12-13T02:23:23.426Z,99.99
2016-12-13T02:24:34.113Z,99.99
2016-12-13T02:25:44.797Z,99.99
2016-12-13T02:26:55.469Z,99.99
2016-12-13T02:28:06.123Z,99.99
2016-12-13T02:29:16.823Z,99.99
2016-12-13T02:30:27.532Z,99.99
2016-12-13T02:31:38.225Z,99.99
2016-12-13T02:32:48.922Z,99.99
2016-12-13T02:33:59.587Z,99.99
2016-12-13T02:35:10.274Z,99.99
2016-12-13T02:36:20.976Z,99.99
2016-12-13T02:37:31.648Z,99.99
2016-12-13T02:38:42.329Z,99.99
2016-12-13T02:39:53.018Z,99.99
2016-12-13T02:41:03.704Z,99.99
2016-12-13T02:42:14.382Z,99.99
2016-12-13T02:43:25.070Z,99.99
2016-12-13T02:44:35.743Z,99.99
2016-12-13T02:45:46.430Z,99.99
2016-12-13T02:46:57.120Z,99.99
2016-12-13T02:48:07.827Z,99.99
2016-12-13T02:49:18.508Z,99.99
2016-12-13T02:50:29.196Z,99.99
2016-12-13T02:51:39.899Z,99.99
2016-12-13T02:52:51.090Z,99.99
2016-12-13T02:54:01.787Z,99.99
2016-12-13T02:55:12.469Z,99.99
2016-12-13T02:56:23.165Z,99.99
2016-12-13T02:57:33.860Z,99.99
2016-12-13T02:58:44.548Z,99.99
2016-12-13T02:59:55.275Z,99.99
2016-12-13T03:01:05.967Z,99.99
2016-12-13T03:02:16.666Z,99.99
2016-12-13T03:03:27.392Z,99.99
2016-12-13T03:04:38.097Z,99.99
2016-12-13T03:05:48.778Z,99.99
2016-12-13T03:06:59.459Z,99.99
2016-12-13T03:08:10.128Z,99.99
2016-12-13T03:09:20.810Z,99.99
2016-12-13T03:10:31.525Z,99.99
2016-12-13T03:11:42.221Z,99.99
2016-12-13T03:12:52.885Z,99.99
2016-12-13T03:14:03.566Z,99.99
2016-12-13T03:15:14.287Z,99.99
2016-12-13T03:16:24.961Z,99.99
2016-12-13T03:17:35.646Z,99.99
2016-12-13T03:18:46.365Z,99.99
2016-12-13T03:19:57.076Z,99.99
2016-12-13T03:21:07.758Z,99.99
2016-12-13T03:22:18.448Z,99.99
2016-12-13T03:23:29.160Z,99.99
2016-12-13T03:24:39.844Z,99.99
2016-12-13T03:25:51.038Z,99.99
2016-12-13T03:27:01.727Z,99.99
2016-12-13T03:28:12.404Z,99.99
2016-12-13T03:29:23.085Z,99.99
2016-12-13T03:30:33.764Z,99.99
2016-12-13T03:31:44.630Z,99.99
2016-12-13T03:32:56.357Z,99.99
2016-12-13T03:34:07.506Z,99.99
2016-12-13T03:35:18.646Z,99.99
2016-12-13T03:36:29.802Z,99.99
2016-12-13T03:37:40.959Z,99.99
2016-12-13T03:38:52.102Z,99.99
2016-12-13T03:40:03.251Z,99.99
2016-12-13T03:41:14.408Z,99.99
2016-12-13T03:42:25.535Z,99.99
2016-12-13T03:43:36.661Z,99.99
2016-12-13T03:44:47.834Z,99.99
2016-12-13T03:45:58.990Z,99.99
2016-12-13T03:47:10.146Z,99.99
2016-12-13T03:48:21.291Z,99.99
2016-12-13T03:49:32.439Z,99.99
2016-12-13T03:50:43.563Z,99.99
2016-12-13T03:51:54.713Z,99.99
2016-12-13T03:53:05.874Z,99.99
2016-12-13T03:54:17.031Z,99.99
2016-12-13T03:55:28.188Z,99.99
2016-12-13T03:56:39.363Z,99.99
2016-12-13T03:57:50.515Z,99.99
2016-12-13T03:59:01.696Z,99.99
2016-12-13T04:00:12.844Z,99.99
2016-12-13T04:01:23.971Z,99.99
2016-12-13T04:02:35.114Z,99.99
2016-12-13T04:03:46.239Z,99.99
2016-12-13T04:04:57.401Z,99.99
2016-12-13T04:06:08.542Z,99.99
2016-12-13T04:07:19.696Z,99.99
2016-12-13T04:08:30.855Z,99.99
2016-12-13T04:09:42.055Z,99.99
2016-12-13T04:10:53.206Z,99.99
2016-12-13T04:12:04.892Z,99.99
2016-12-13T04:13:16.035Z,99.99
2016-12-13T04:14:27.200Z,99.99
2016-12-13T04:15:38.328Z,99.99
2016-12-13T04:16:49.466Z,99.99
2016-12-13T04:18:00.635Z,99.99
2016-12-13T04:19:11.809Z,99.99
2016-12-13T04:20:22.983Z,99.99
2016-12-13T04:21:34.126Z,99.99
2016-12-13T04:22:45.281Z,99.99
2016-12-13T04:23:56.431Z,99.99
2016-12-13T04:25:07.594Z,99.99
2016-12-13T04:26:18.748Z,99.99
2016-12-13T04:27:29.887Z,99.99
2016-12-13T04:28:41.046Z,99.99
2016-12-13T04:29:52.574Z,99.99
2016-12-13T04:31:05.670Z,99.99
2016-12-13T04:32:16.794Z,99.99
2016-12-13T04:33:27.950Z,99.99
2016-12-13T04:34:39.118Z,99.99
2016-12-13T04:35:50.291Z,99.99
2016-12-13T04:37:01.470Z,99.99
2016-12-13T04:38:12.624Z,99.99
2016-12-13T04:39:23.785Z,99.99
2016-12-13T04:40:34.947Z,99.99
2016-12-13T04:41:46.132Z,99.99
2016-12-13T04:42:57.282Z,99.99
2016-12-13T04:44:08.409Z,99.99
2016-12-13T04:45:19.555Z,99.99
2016-12-13T04:46:30.721Z,99.99
2016-12-13T04:47:41.874Z,99.99
2016-12-13T04:48:53.034Z,99.99
2016-12-13T04:50:04.206Z,99.99
2016-12-13T04:51:15.351Z,99.99
2016-12-13T04:52:26.483Z,99.99
2016-12-13T04:53:37.638Z,99.99
2016-12-13T04:54:48.818Z,99.99
2016-12-13T04:55:59.940Z,99.99
2016-12-13T04:57:11.081Z,99.99
2016-12-13T04:58:22.790Z,99.99
2016-12-13T04:59:33.944Z,99.99
2016-12-13T05:00:45.093Z,99.99
2016-12-13T05:01:56.257Z,99.99
2016-12-13T05:03:07.435Z,99.99
2016-12-13T05:04:18.576Z,99.99
2016-12-13T05:05:29.724Z,99.99
2016-12-13T05:06:41.433Z,99.99
2016-12-13T05:07:52.630Z,99.99
2016-12-13T05:09:03.776Z,99.99
2016-12-13T05:10:14.939Z,99.99
2016-12-13T05:11:26.078Z,99.99
2016-12-13T05:12:37.221Z,99.99
2016-12-13T05:13:48.382Z,99.99
2016-12-13T05:14:59.536Z,99.99
2016-12-13T05:16:10.674Z,99.99
2016-12-13T05:17:21.802Z,99.99
2016-12-13T05:18:32.932Z,99.99
2016-12-13T05:19:44.068Z,99.99
2016-12-13T05:20:55.200Z,99.99
2016-12-13T05:22:06.349Z,99.99
2016-12-13T05:23:17.485Z,99.99
2016-12-13T05:24:28.665Z,99.99
2016-12-13T05:25:40.370Z,99.99
2016-12-13T05:26:51.528Z,99.99
2016-12-13T05:28:02.677Z,99.99
2016-12-13T05:29:14.369Z,99.99
2016-12-13T05:30:25.510Z,99.99
2016-12-13T05:31:36.656Z,99.99
2016-12-13T05:32:47.799Z,99.99
2016-12-13T05:33:58.947Z,99.99
2016-12-13T05:35:10.111Z,99.99
2016-12-13T05:36:21.270Z,99.99
2016-12-13T05:37:32.403Z,99.99
2016-12-13T05:38:43.557Z,99.99
2016-12-13T05:39:54.699Z,99.99
2016-12-13T05:41:05.856Z,99.99
2016-12-13T05:42:16.989Z,99.99
2016-12-13T05:43:28.120Z,99.99
2016-12-13T05:44:39.251Z,99.99
2016-12-13T05:45:50.396Z,99.99
2016-12-13T05:47:01.556Z,99.99
2016-12-13T05:48:12.691Z,99.99
2016-12-13T05:49:23.831Z,99.99
2016-12-13T05:50:34.972Z,99.99
2016-12-13T05:51:46.132Z,99.99
2016-12-13T05:52:57.288Z,99.99
2016-12-13T05:54:08.406Z,99.99
2016-12-13T05:55:19.588Z,99.99
2016-12-13T05:56:30.727Z,99.99
2016-12-13T05:57:41.883Z,99.99
2016-12-13T05:58:53.022Z,99.99
2016-12-13T06:00:04.177Z,99.99
2016-12-13T06:01:15.327Z,99.99
2016-12-13T06:02:26.502Z,99.99
2016-12-13T06:03:37.660Z,99.99
2016-12-13T06:04:48.782Z,99.99
2016-12-13T06:05:59.929Z,99.99
2016-12-13T06:07:11.659Z,99.99
2016-12-13T06:08:22.822Z,99.99
2016-12-13T06:09:33.976Z,99.99
2016-12-13T06:10:45.140Z,99.99
2016-12-13T06:11:56.292Z,99.99
2016-12-13T06:13:07.453Z,99.99
2016-12-13T06:14:18.600Z,99.99
2016-12-13T06:15:29.734Z,99.99
2016-12-13T06:16:40.884Z,99.99
2016-12-13T06:17:52.032Z,99.99
2016-12-13T06:19:03.191Z,99.99
2016-12-13T06:20:14.358Z,99.99
2016-12-13T06:21:25.535Z,99.99
2016-12-13T06:22:37.276Z,99.99
2016-12-13T06:23:48.410Z,99.99
2016-12-13T06:24:59.540Z,99.99
2016-12-13T06:26:10.698Z,99.99
2016-12-13T06:27:21.836Z,99.99
2016-12-13T06:28:32.997Z,99.99
2016-12-13T06:29:44.130Z,99.99
2016-12-13T06:30:55.254Z,99.99
2016-12-13T06:32:06.395Z,99.99
2016-12-13T06:33:17.557Z,99.99
2016-12-13T06:34:28.714Z,99.99
2016-12-13T06:35:39.869Z,99.99
2016-12-13T06:36:51.009Z,99.99
2016-12-13T06:38:02.125Z,99.99
2016-12-13T06:39:13.292Z,99.99
2016-12-13T06:40:24.449Z,99.99
2016-12-13T06:41:35.603Z,99.99
2016-12-13T06:42:46.740Z,99.99
2016-12-13T06:43:57.907Z,99.99
2016-12-13T06:45:09.613Z,99.99
2016-12-13T06:46:20.774Z,99.99
2016-12-13T06:47:31.936Z,99.99
2016-12-13T06:48:43.088Z,99.99
2016-12-13T06:49:54.203Z,99.99
2016-12-13T06:51:05.332Z,99.99
2016-12-13T06:52:16.479Z,99.99
2016-12-13T06:53:27.633Z,99.99
2016-12-13T06:54:38.823Z,99.99
2016-12-13T06:55:49.977Z,99.99
2016-12-13T06:57:01.138Z,99.99
2016-12-13T06:58:12.296Z,99.99
2016-12-13T06:59:23.473Z,99.99
2016-12-13T07:00:34.630Z,99.99
2016-12-13T07:01:45.793Z,99.99
2016-12-13T07:02:56.922Z,99.99
2016-12-13T07:04:08.076Z,99.99
2016-12-13T07:05:19.203Z,99.99
2016-12-13T07:06:30.350Z,99.99
2016-12-13T07:07:41.545Z,99.99
2016-12-13T07:08:52.740Z,99.99
2016-12-13T07:10:03.899Z,99.99
2016-12-13T07:11:15.063Z,99.99
2016-12-13T07:12:26.215Z,99.99
2016-12-13T07:13:37.361Z,99.99
2016-12-13T07:14:48.481Z,99.99
2016-12-13T07:15:59.647Z,99.99
2016-12-13T07:17:10.798Z,99.99
2016-12-13T07:18:21.953Z,99.99
2016-12-13T07:19:33.121Z,99.99
2016-12-13T07:20:44.287Z,99.99
2016-12-13T07:21:55.437Z,99.99
2016-12-13T07:23:06.601Z,99.99
2016-12-13T07:24:17.757Z,99.99
2016-12-13T07:25:28.949Z,99.99
2016-12-13T07:26:40.099Z,99.99
2016-12-13T07:27:51.284Z,99.99
2016-12-13T07:29:02.433Z,99.99
2016-12-13T07:30:13.595Z,99.99
2016-12-13T07:31:24.745Z,99.99
2016-12-13T07:32:35.891Z,99.99
2016-12-13T07:33:47.031Z,99.99
2016-12-13T07:34:58.164Z,99.99
2016-12-13T07:36:09.337Z,99.99
2016-12-13T07:37:20.512Z,99.99
2016-12-13T07:38:31.663Z,99.99
2016-12-13T07:39:42.837Z,99.99
2016-12-13T07:40:54.007Z,99.99
2016-12-13T07:42:05.179Z,99.99
2016-12-13T07:43:16.370Z,99.99
2016-12-13T07:44:27.487Z,99.99
2016-12-13T07:45:38.646Z,99.99
2016-12-13T07:46:49.787Z,99.99
2016-12-13T07:48:00.958Z,99.99
2016-12-13T07:49:12.104Z,99.99
2016-12-13T07:50:23.278Z,99.99
2016-12-13T07:51:34.983Z,99.99
2016-12-13T07:52:46.123Z,99.99
2016-12-13T07:53:57.257Z,99.99
2016-12-13T07:55:08.429Z,99.99
2016-12-13T07:56:19.586Z,99.99
2016-12-13T07:57:30.729Z,99.99
2016-12-13T07:58:41.888Z,99.99
2016-12-13T07:59:53.058Z,99.99
2016-12-13T08:01:04.207Z,99.99
2016-12-13T08:02:15.371Z,99.99
2016-12-13T08:03:26.515Z,99.99
2016-12-13T08:04:38.222Z,99.99
2016-12-13T08:05:49.364Z,99.99
2016-12-13T08:07:00.513Z,99.99
2016-12-13T08:08:11.656Z,99.99
2016-12-13T08:09:22.795Z,99.99
2016-12-13T08:10:33.957Z,99.99
2016-12-13T08:11:45.677Z,99.99
2016-12-13T08:12:56.831Z,99.99
2016-12-13T08:14:07.994Z,99.99
2016-12-13T08:15:19.138Z,99.99
2016-12-13T08:16:30.304Z,99.99
2016-12-13T08:17:41.464Z,99.99
2016-12-13T08:18:52.629Z,99.99
2016-12-13T08:20:03.832Z,99.99
2016-12-13T08:21:14.970Z,99.99
2016-12-13T08:22:26.111Z,99.99
2016-12-13T08:23:37.257Z,99.99
2016-12-13T08:24:48.422Z,99.99
2016-12-13T08:25:59.596Z,99.99
2016-12-13T08:27:10.777Z,99.99
2016-12-13T08:28:21.915Z,99.99
2016-12-13T08:29:33.065Z,99.99
2016-12-13T08:30:44.204Z,99.99
2016-12-13T08:31:55.364Z,99.99
2016-12-13T08:33:06.500Z,99.99
2016-12-13T08:34:17.640Z,99.99
2016-12-13T08:35:28.794Z,99.99
2016-12-13T08:36:39.947Z,99.99
2016-12-13T08:37:51.078Z,99.99
2016-12-13T08:39:02.236Z,99.99
2016-12-13T08:40:13.390Z,99.99
2016-12-13T08:41:24.566Z,99.99
2016-12-13T08:42:35.707Z,99.99
2016-12-13T08:43:46.863Z,99.99
2016-12-13T08:44:58.017Z,99.99
2016-12-13T08:46:09.195Z,99.99
2016-12-13T08:47:20.360Z,99.99
2016-12-13T08:48:31.495Z,99.99
2016-12-13T08:49:42.632Z,99.99
2016-12-13T08:50:53.785Z,99.99
2016-12-13T08:52:04.935Z,99.99
2016-12-13T08:53:16.127Z,99.99
2016-12-13T08:54:27.288Z,99.99
2016-12-13T08:55:38.416Z,99.99
2016-12-13T08:56:49.565Z,99.99
2016-12-13T08:58:00.725Z,99.99
2016-12-13T08:59:11.854Z,99.99
2016-12-13T09:00:23.002Z,99.99
2016-12-13T09:01:34.159Z,99.99
2016-12-13T09:02:45.311Z,99.99
2016-12-13T09:03:56.456Z,99.99
2016-12-13T09:05:07.612Z,99.99
2016-12-13T09:06:18.758Z,99.99
2016-12-13T09:07:29.902Z,99.99
2016-12-13T09:08:41.049Z,99.98
2016-12-13T09:09:52.186Z,98.34
2016-12-13T09:11:03.341Z,98.49
2016-12-13T09:12:14.475Z,98.1
2016-12-13T09:13:25.621Z,97.38
2016-12-13T09:14:36.756Z,95.64
2016-12-13T09:15:47.916Z,93.8
2016-12-13T09:16:59.071Z,92.88
2016-12-13T09:18:10.273Z,92.69
2016-12-13T09:19:21.395Z,91.28
2016-12-13T09:20:32.543Z,90.65
2016-12-13T09:21:43.672Z,89.78
2016-12-13T09:22:54.827Z,88.47
2016-12-13T09:24:05.996Z,86.68
2016-12-13T09:25:17.169Z,85.22
2016-12-13T09:26:28.320Z,84.55
2016-12-13T09:27:39.459Z,85.17
2016-12-13T09:28:50.615Z,84.74
2016-12-13T09:30:01.814Z,85.22
2016-12-13T09:31:12.958Z,83.72
2016-12-13T09:32:24.104Z,83.72
2016-12-13T09:33:35.260Z,83.03
2016-12-13T09:34:46.461Z,82.94
2016-12-13T09:35:57.618Z,83.52
2016-12-13T09:37:09.365Z,82.45
2016-12-13T09:38:20.565Z,82.4
2016-12-13T09:39:31.709Z,80.85
2016-12-13T09:40:42.857Z,80.98
2016-12-13T09:41:54.017Z,79.47
2016-12-13T09:43:05.193Z,79.28
2016-12-13T09:44:16.391Z,77.95
2016-12-13T09:45:27.556Z,76.25
2016-12-13T09:46:38.698Z,77.51
2016-12-13T09:47:50.428Z,76.89
2016-12-13T09:49:01.593Z,77.86
2016-12-13T09:50:12.743Z,77.47
2016-12-13T09:51:23.908Z,79.57
2016-12-13T09:52:35.073Z,80.88
2016-12-13T09:53:46.235Z,82.4
2016-12-13T09:54:57.962Z,82.94
2016-12-13T09:56:19.503Z,83.42
2016-12-13T09:57:30.665Z,83.38
2016-12-13T09:58:41.822Z,83.48
2016-12-13T09:59:52.961Z,84.06
2016-12-13T10:01:04.114Z,83.03
2016-12-13T10:02:15.282Z,82.75
2016-12-13T10:03:26.543Z,82.07
2016-12-13T10:04:37.708Z,81.58
2016-12-13T10:05:49.420Z,83.13
2016-12-13T10:07:00.612Z,83.42
2016-12-13T10:08:11.771Z,82.84
2016-12-13T10:09:23.462Z,81.97
2016-12-13T10:10:34.645Z,80.36
2016-12-13T10:11:45.783Z,79.91
2016-12-13T10:12:56.951Z,78.94
2016-12-13T10:14:08.100Z,79.82
2016-12-13T10:15:19.267Z,79.66
2016-12-13T10:16:30.413Z,79.82
2016-12-13T10:17:41.611Z,79.82
2016-12-13T10:18:52.789Z,79.53
2016-12-13T10:20:03.919Z,79.57
2016-12-13T10:21:15.685Z,80.4
2016-12-13T10:22:26.825Z,80.6
2016-12-13T10:23:37.991Z,80.69
2016-12-13T10:24:49.171Z,81.95
2016-12-13T10:26:00.331Z,84.3
2016-12-13T10:27:11.475Z,85.07
2016-12-13T10:28:22.655Z,82.94
2016-12-13T10:29:33.805Z,81.82
2016-12-13T10:30:44.957Z,81.33
2016-12-13T10:31:56.107Z,80.11
2016-12-13T10:33:07.284Z,78.99
2016-12-13T10:34:18.456Z,78.54
2016-12-13T10:35:30.186Z,76.98
2016-12-13T10:36:41.346Z,76.25
2016-12-13T10:37:52.542Z,78.09
2016-12-13T10:39:03.697Z,79.71
2016-12-13T10:40:14.875Z,80.05
2016-12-13T10:41:26.041Z,79.28
2016-12-13T10:42:37.205Z,79.86
2016-12-13T10:43:48.423Z,78.69
2016-12-13T10:44:59.556Z,78.73
2016-12-13T10:46:10.728Z,79.22
2016-12-13T10:47:21.899Z,79.66
2016-12-13T10:48:33.036Z,82.05
2016-12-13T10:49:44.204Z,83.02
2016-12-13T10:50:55.386Z,84.88
2016-12-13T10:52:06.545Z,86.48
2016-12-13T10:53:17.710Z,87.41
2016-12-13T10:54:28.881Z,87.89
2016-12-13T10:55:40.066Z,89.15
2016-12-13T10:56:51.232Z,89.29
2016-12-13T10:58:02.951Z,89.88
2016-12-13T10:59:14.140Z,89.59
2016-12-13T11:00:25.311Z,89.29
2016-12-13T11:01:36.478Z,87.95
2016-12-13T11:02:47.641Z,87.02
2016-12-13T11:03:58.840Z,85.9
2016-12-13T11:05:09.973Z,84.83
2016-12-13T11:06:21.139Z,85.22
2016-12-13T11:07:32.319Z,84.2
2016-12-13T11:08:43.487Z,84.63
2016-12-13T11:09:54.666Z,84.34
2016-12-13T11:11:05.833Z,82.24
2016-12-13T11:12:16.998Z,80.44
2016-12-13T11:13:28.199Z,79.61
2016-12-13T11:14:39.925Z,78.73
2016-12-13T11:15:51.085Z,78.19
2016-12-13T11:17:02.241Z,79.55
2016-12-13T11:18:13.403Z,79.71
2016-12-13T11:19:24.560Z,79.71
2016-12-13T11:20:35.737Z,77.76
2016-12-13T11:21:46.888Z,77.41
2016-12-13T11:22:58.027Z,76.38
2016-12-13T11:24:09.184Z,77.64
2016-12-13T11:25:20.359Z,77.48
2016-12-13T11:26:31.486Z,77.45
2016-12-13T11:27:43.241Z,77.9
2016-12-13T11:28:54.400Z,79.45
2016-12-13T11:30:05.574Z,78.25
2016-12-13T11:31:16.723Z,79.06
2016-12-13T11:32:27.882Z,79.06
2016-12-13T11:33:39.048Z,76.97
2016-12-13T11:34:50.199Z,76.97
2016-12-13T11:36:01.361Z,77.55
2016-12-13T11:37:12.551Z,78.81
2016-12-13T11:38:23.719Z,77.9
2016-12-13T11:39:34.869Z,77.9
2016-12-13T11:40:46.021Z,75.8
2016-12-13T11:41:57.184Z,74.18
2016-12-13T11:43:08.382Z,72.8
2016-12-13T11:44:20.094Z,72.44
2016-12-13T11:45:31.815Z,72.44
2016-12-13T11:46:43.015Z,72.92
2016-12-13T11:47:54.810Z,71.76
2016-12-13T11:49:06.001Z,71.08
2016-12-13T11:50:17.168Z,71.99
2016-12-13T11:51:28.352Z,69.65
2016-12-13T11:52:39.527Z,70.66
2016-12-13T11:53:50.752Z,72.77
2016-12-13T11:55:01.900Z,75.03
2016-12-13T11:56:13.086Z,78.17
2016-12-13T11:57:24.856Z,79.06
2016-12-13T11:58:35.977Z,78.38
2016-12-13T11:59:47.139Z,77.55
2016-12-13T12:00:58.328Z,77.39
2016-12-13T12:02:09.496Z,79.14
2016-12-13T12:03:20.683Z,80.07
2016-12-13T12:04:31.868Z,81.49
2016-12-13T12:05:43.619Z,81.8
2016-12-13T12:06:54.810Z,81.9
2016-12-13T12:08:06.015Z,80.87
2016-12-13T12:09:17.169Z,79.45
2016-12-13T12:10:28.357Z,77.25
2016-12-13T12:11:39.542Z,74.41
2016-12-13T12:12:50.699Z,74.65
2016-12-13T12:14:01.848Z,74.87
2016-12-13T12:15:13.052Z,74.35
2016-12-13T12:16:24.199Z,74.35
2016-12-13T12:17:35.368Z,76.65
2016-12-13T12:18:46.584Z,78.07
2016-12-13T12:19:57.807Z,77.74
2016-12-13T12:21:10.993Z,77.06
2016-12-13T12:22:22.190Z,77.29
2016-12-13T12:23:33.349Z,77.29
2016-12-13T12:24:44.537Z,76.75
2016-12-13T12:25:55.692Z,77.14
2016-12-13T12:27:06.868Z,74.99
2016-12-13T12:28:18.040Z,74.74
2016-12-13T12:29:29.215Z,75.68
2016-12-13T12:30:40.387Z,77.91
2016-12-13T12:31:51.545Z,79.1
2016-12-13T12:33:03.292Z,80.07
2016-12-13T12:34:14.442Z,81.26
2016-12-13T12:35:25.614Z,79.84
2016-12-13T12:36:36.799Z,78.61
2016-12-13T12:37:47.955Z,78.91
2016-12-13T12:38:59.140Z,80.21
2016-12-13T12:40:10.292Z,79.49
2016-12-13T12:41:21.456Z,79.78
2016-12-13T12:42:32.601Z,79.49
2016-12-13T12:43:43.769Z,79.06
2016-12-13T12:44:54.898Z,78.42
2016-12-13T12:46:06.042Z,79.3
2016-12-13T12:47:17.199Z,80.13
2016-12-13T12:48:28.343Z,82.03
2016-12-13T12:49:39.511Z,80.77
2016-12-13T12:50:50.662Z,81.55
2016-12-13T12:52:01.875Z,81.06
2016-12-13T12:53:13.084Z,79.84
2016-12-13T12:54:24.274Z,80.13
2016-12-13T12:55:35.441Z,79.06
2016-12-13T12:56:46.603Z,79.3
2016-12-13T12:57:57.843Z,77.94
2016-12-13T12:59:09.693Z,77.84
2016-12-13T13:00:20.850Z,79.25
2016-12-13T13:01:32.037Z,79.49
2016-12-13T13:02:43.218Z,79.59
2016-12-13T13:03:54.396Z,78.71
2016-12-13T13:05:06.118Z,77.64
2016-12-13T13:06:17.266Z,78.23
2016-12-13T13:07:28.412Z,78.07
2016-12-13T13:08:39.573Z,79
2016-12-13T13:09:50.725Z,77.84
2016-12-13T13:11:01.887Z,78.03
2016-12-13T13:12:13.034Z,77.58
2016-12-13T13:13:24.169Z,77.1
2016-12-13T13:14:35.344Z,76.51
2016-12-13T13:15:46.510Z,77.48
2016-12-13T13:16:57.674Z,77.97
2016-12-13T13:18:08.846Z,77.58
2016-12-13T13:19:19.845Z,78.17
2016-12-13T13:20:30.553Z,77.97
2016-12-13T13:21:41.257Z,77.94
2016-12-13T13:22:51.965Z,77.35
2016-12-13T13:24:02.669Z,77.45
2016-12-13T13:25:13.921Z,75.93
2016-12-13T13:26:24.624Z,75.58
2016-12-13T13:28:26.211Z,75.58
2016-12-13T13:29:36.889Z,77.91
2016-12-13T13:30:49.175Z,79.49
2016-12-13T13:32:03.482Z,78.03
2016-12-13T13:33:16.329Z,75.84
2016-12-13T13:34:28.843Z,76.84
2016-12-13T13:35:42.473Z,73.34
2016-12-13T13:36:55.897Z,72.8
2016-12-13T13:38:09.268Z,73.47
2016-12-13T13:39:22.336Z,71.23
2016-12-13T13:40:35.721Z,71.27
2016-12-13T13:41:48.313Z,72.44
2016-12-13T13:43:00.255Z,71.86
2016-12-13T13:44:12.387Z,71.89
2016-12-13T13:45:24.559Z,74.43
2016-12-13T13:46:36.684Z,73.47
2016-12-13T13:47:48.118Z,73.47
2016-12-13T13:48:59.733Z,74.35
2016-12-13T13:50:12.070Z,75.32
2016-12-13T13:51:23.273Z,76.45
2016-12-13T13:52:33.985Z,78.46
2016-12-13T13:53:46.141Z,78.03
2016-12-13T13:54:56.835Z,77.94
2016-12-13T13:56:08.270Z,79.2
2016-12-13T13:57:19.700Z,78.23
2016-12-13T13:58:30.438Z,79.59
2016-12-13T13:59:43.071Z,78.61
2016-12-13T14:00:53.775Z,79.78
2016-12-13T14:02:05.193Z,79.39
2016-12-13T14:03:16.581Z,79.59
2016-12-13T14:04:27.279Z,75.8
2016-12-13T14:05:38.191Z,75.84
2016-12-13T14:06:49.614Z,73.24
2016-12-13T14:08:00.318Z,72.7
2016-12-13T14:09:11.035Z,74.93
2016-12-13T14:10:21.726Z,75.62
2016-12-13T14:11:32.466Z,75.58
2016-12-13T14:12:43.187Z,77.39
2016-12-13T14:13:54.397Z,75.84
2016-12-13T14:15:05.123Z,74.9
2016-12-13T14:16:15.836Z,74.41
2016-12-13T14:17:26.533Z,72.7
2016-12-13T14:18:37.276Z,71.08
2016-12-13T14:19:47.974Z,71.15
2016-12-13T14:20:59.405Z,72.28
2016-12-13T14:22:10.143Z,72.28
2016-12-13T14:23:20.856Z,72.73
2016-12-13T14:24:32.902Z,72.34
2016-12-13T14:25:44.193Z,72.8
2016-12-13T14:26:54.936Z,72.7
2016-12-13T14:28:05.658Z,71.72
2016-12-13T14:29:16.347Z,70.07
2016-12-13T14:30:27.259Z,68.64
2016-12-13T14:31:38.493Z,69.07
2016-12-13T14:32:50.614Z,68.58
2016-12-13T14:34:01.367Z,67.83
2016-12-13T14:35:12.266Z,68.32
2016-12-13T14:36:23.696Z,68.42
2016-12-13T14:37:34.473Z,67.57
2016-12-13T14:38:45.380Z,67.47
2016-12-13T14:39:56.115Z,68.71
2016-12-13T14:41:07.544Z,68.42
2016-12-13T14:42:18.993Z,68.71
2016-12-13T14:43:29.727Z,70.14
2016-12-13T14:44:40.471Z,69.46
2016-12-13T14:45:51.191Z,67.44
2016-12-13T14:47:01.927Z,64.78
2016-12-13T14:48:13.375Z,65.39
2016-12-13T14:49:24.803Z,64.12
2016-12-13T14:50:35.529Z,64.97
2016-12-13T14:51:46.230Z,65.36
2016-12-13T14:52:56.946Z,64.97
2016-12-13T14:54:07.873Z,66.02
2016-12-13T14:55:19.820Z,66.02
2016-12-13T14:56:30.571Z,64.68
2016-12-13T14:57:41.303Z,64
2016-12-13T14:58:52.038Z,62.18
2016-12-13T15:00:02.785Z,64.19
2016-12-13T15:01:13.711Z,63.7
2016-12-13T15:02:24.960Z,63.41
2016-12-13T15:03:36.385Z,64.36
2016-12-13T15:04:47.112Z,63.21
2016-12-13T15:05:58.039Z,62.34
2016-12-13T15:07:09.309Z,63.12
2016-12-13T15:08:20.008Z,62.82
2016-12-13T15:09:30.723Z,61.56
2016-12-13T15:10:41.436Z,61.95
2016-12-13T15:11:52.153Z,62.44
2016-12-13T15:13:03.635Z,61.79
2016-12-13T15:14:15.074Z,60.45
2016-12-13T15:15:25.838Z,58.72
2016-12-13T15:16:37.266Z,59.96
2016-12-13T15:17:48.685Z,61.04